Terminal Aerodrome Forecast
Issued by NWS

Home | Current Version | Previous Version | Text Only | Print | Product List | Glossary On
Versions: 1 2 3 4 5 6 7 8 9 10 11 12 13 14 15 16 17 18 19
704
FTAK31 PAJN 170750 AAA
TAFAPG
TAF AMD
PAPG 170750Z 1708/1806 20005KT P6SM FEW004 BKN012 OVC020
      TEMPO 1708/1712 1SM -RA BR BKN004 OVC012
     FM171500 VRB03KT P6SM BKN035
     FM172200 11007KT P6SM -RA OVC030
     FM180300 VRB03KT 4SM -RA BR BKN015 OVC025
      AMD LTD TO CLD VIS AND WIND 1708/1715=

USA.gov is the U.S. government's official web portal to all federal, state and local government web resources and services.